createdAt,value
2023-10-10T00:01:47.905Z,100.00
2023-10-10T00:06:51.071Z,100.00
2023-10-10T00:11:54.616Z,100.00
2023-10-10T00:17:00.977Z,98.75
2023-10-10T00:22:05.511Z,99.12
2023-10-10T00:27:14.257Z,98.99
2023-10-10T00:32:23.775Z,99.12
2023-10-10T00:37:30.430Z,98.35
2023-10-10T00:42:39.470Z,99.81
2023-10-10T00:47:46.029Z,99.40
2023-10-10T00:52:53.311Z,99.16
2023-10-10T00:57:59.909Z,98.49
2023-10-10T01:03:08.718Z,100.00
2023-10-10T01:08:11.752Z,98.94
2023-10-10T01:13:14.648Z,99.58
2023-10-10T01:18:18.891Z,99.57
2023-10-10T01:23:28.098Z,99.72
2023-10-10T01:28:35.671Z,100.00
2023-10-10T01:33:43.169Z,100.00
2023-10-10T01:39:09.978Z,100.00
2023-10-10T01:44:13.807Z,99.99
2023-10-10T01:49:21.550Z,100.00
2023-10-10T01:54:35.837Z,100.00
2023-10-10T01:59:39.831Z,100.00
2023-10-10T02:04:43.208Z,100.00
2023-10-10T02:09:54.378Z,100.00
2023-10-10T02:14:57.713Z,100.00
2023-10-10T02:20:18.974Z,100.00
2023-10-10T02:25:39.824Z,100.00
2023-10-10T02:30:42.653Z,100.00
2023-10-10T02:35:55.896Z,100.00
2023-10-10T02:41:16.444Z,100.00
2023-10-10T02:46:19.450Z,100.00
2023-10-10T02:51:22.322Z,100.00
2023-10-10T02:56:26.471Z,100.00
2023-10-10T03:01:51.860Z,100.00
2023-10-10T03:06:54.771Z,100.00
2023-10-10T03:12:04.941Z,100.00
2023-10-10T03:17:29.352Z,100.00
2023-10-10T03:22:53.775Z,100.00
2023-10-10T03:28:06.382Z,100.00
2023-10-10T03:33:17.896Z,100.00
2023-10-10T03:38:38.856Z,100.00
2023-10-10T03:44:00.191Z,100.00
2023-10-10T03:49:21.678Z,100.00
2023-10-10T03:54:42.053Z,100.00
2023-10-10T04:00:03.633Z,100.00
2023-10-10T04:05:33.259Z,100.00
2023-10-10T04:10:50.064Z,100.00
2023-10-10T04:16:11.648Z,100.00
2023-10-10T04:21:32.121Z,100.00
2023-10-10T04:26:52.391Z,100.00
2023-10-10T04:32:14.222Z,100.00
2023-10-10T04:37:34.695Z,100.00
2023-10-10T04:42:55.072Z,100.00
2023-10-10T04:48:16.715Z,100.00
2023-10-10T04:53:37.115Z,100.00
2023-10-10T04:58:57.316Z,100.00
2023-10-10T05:04:19.058Z,100.00
2023-10-10T05:09:39.420Z,100.00
2023-10-10T05:14:59.642Z,100.00
2023-10-10T05:20:21.499Z,100.00
2023-10-10T05:25:25.197Z,100.00
2023-10-10T05:30:40.875Z,100.00
2023-10-10T05:35:48.667Z,100.00
2023-10-10T05:40:52.395Z,100.00
2023-10-10T05:45:55.984Z,100.00
2023-10-10T05:51:00.543Z,100.00
2023-10-10T05:56:13.921Z,100.00
2023-10-10T06:01:18.515Z,100.00
2023-10-10T06:06:22.854Z,100.00
2023-10-10T06:11:25.728Z,100.00
2023-10-10T06:16:29.558Z,100.00
2023-10-10T06:21:33.778Z,100.00
2023-10-10T06:26:38.003Z,100.00
2023-10-10T06:31:44.947Z,100.00
2023-10-10T06:36:50.771Z,100.00
2023-10-10T06:41:55.701Z,100.00
2023-10-10T06:46:58.914Z,100.00
2023-10-10T06:52:03.065Z,100.00
2023-10-10T06:57:06.858Z,100.00
2023-10-10T07:02:21.067Z,100.00
2023-10-10T07:07:27.657Z,100.00
2023-10-10T07:12:32.978Z,100.00
2023-10-10T07:17:40.153Z,100.00
2023-10-10T07:22:46.259Z,100.00
2023-10-10T07:27:49.076Z,100.00
2023-10-10T07:32:52.357Z,99.58
2023-10-10T07:38:00.008Z,99.49
2023-10-10T07:43:04.385Z,98.48
2023-10-10T07:48:36.698Z,96.98
2023-10-10T07:53:45.720Z,95.39
2023-10-10T07:58:53.993Z,95.25
2023-10-10T08:03:57.089Z,93.74
2023-10-10T08:09:19.333Z,92.74
2023-10-10T08:14:25.670Z,93.20
2023-10-10T08:19:34.501Z,93.14
2023-10-10T08:24:40.412Z,92.28
2023-10-10T08:29:43.247Z,96.60
2023-10-10T08:34:46.522Z,92.34
2023-10-10T08:39:51.260Z,96.16
2023-10-10T08:44:56.830Z,96.34
2023-10-10T08:50:02.061Z,96.39
2023-10-10T08:55:11.376Z,93.30
2023-10-10T09:00:18.908Z,95.10
2023-10-10T09:05:23.729Z,93.71
2023-10-10T09:10:29.475Z,94.47
2023-10-10T09:15:35.120Z,92.66
2023-10-10T09:20:38.462Z,91.43
2023-10-10T09:25:45.333Z,87.60
2023-10-10T09:31:00.013Z,83.75
2023-10-10T09:36:10.408Z,84.07
2023-10-10T09:41:28.546Z,80.94
2023-10-10T09:46:59.931Z,81.73
2023-10-10T09:52:33.530Z,80.85
2023-10-10T09:57:41.444Z,79.65
2023-10-10T10:02:49.455Z,79.58
2023-10-10T10:08:06.445Z,79.78
2023-10-10T10:13:27.706Z,76.26
2023-10-10T10:18:45.729Z,71.50
2023-10-10T10:23:58.637Z,67.38
2023-10-10T10:29:16.819Z,69.46
2023-10-10T10:34:32.451Z,70.74
2023-10-10T10:39:37.315Z,72.23
2023-10-10T10:44:48.384Z,71.96
2023-10-10T10:49:55.589Z,71.90
2023-10-10T10:55:19.990Z,71.44
2023-10-10T11:00:55.528Z,69.98
2023-10-10T11:05:58.678Z,70.39
2023-10-10T11:11:21.677Z,71.55
2023-10-10T11:16:37.974Z,72.11
2023-10-10T11:21:48.731Z,70.04
2023-10-10T11:27:03.711Z,68.33
2023-10-10T11:32:09.341Z,69.50
2023-10-10T11:37:18.507Z,67.78
2023-10-10T11:42:30.998Z,68.22
2023-10-10T11:47:43.555Z,67.27
2023-10-10T11:52:54.663Z,64.53
2023-10-10T11:57:59.253Z,67.87
2023-10-10T12:03:06.713Z,66.02
2023-10-10T12:08:09.610Z,60.85
2023-10-10T12:13:20.586Z,59.41
2023-10-10T12:18:27.365Z,58.62
2023-10-10T12:23:31.363Z,61.57
2023-10-10T12:28:34.327Z,58.45
2023-10-10T12:33:38.521Z,56.20
2023-10-10T12:38:41.648Z,55.08
2023-10-10T12:43:44.478Z,48.21
2023-10-10T12:48:52.310Z,48.86
2023-10-10T12:54:02.123Z,56.36
2023-10-10T12:59:23.532Z,57.50
2023-10-10T13:04:33.079Z,57.98
2023-10-10T13:09:43.567Z,55.08
2023-10-10T13:14:51.881Z,53.56
2023-10-10T13:19:59.679Z,54.72
2023-10-10T13:25:09.768Z,53.75
2023-10-10T13:30:13.740Z,52.01
2023-10-10T13:35:21.182Z,53.19
2023-10-10T13:40:24.368Z,53.30
2023-10-10T13:45:29.393Z,54.52
2023-10-10T13:50:43.305Z,51.73
2023-10-10T13:55:47.196Z,54.37
2023-10-10T14:00:56.567Z,53.27
2023-10-10T14:06:05.227Z,50.62
2023-10-10T14:11:08.344Z,52.56
2023-10-10T14:16:11.274Z,54.08
2023-10-10T14:21:17.824Z,51.02
2023-10-10T14:26:28.743Z,45.76
2023-10-10T14:31:32.367Z,45.79
2023-10-10T14:36:40.333Z,45.51
2023-10-10T14:41:44.646Z,46.26
2023-10-10T14:46:47.517Z,49.60
2023-10-10T14:51:53.998Z,53.01
2023-10-10T14:56:56.890Z,53.83
2023-10-10T15:02:01.208Z,52.53
2023-10-10T15:07:05.929Z,52.77
2023-10-10T15:12:09.795Z,51.90
2023-10-10T15:17:13.424Z,53.81
2023-10-10T15:22:18.818Z,53.16
2023-10-10T15:27:21.726Z,54.08
2023-10-10T15:32:24.591Z,54.70
2023-10-10T15:37:31.633Z,55.36
2023-10-10T15:42:34.426Z,56.52
2023-10-10T15:47:37.330Z,56.03
2023-10-10T15:52:43.060Z,56.33
2023-10-10T15:57:45.987Z,57.44
2023-10-10T16:02:53.386Z,57.74
2023-10-10T16:08:08.845Z,57.67
2023-10-10T16:13:12.141Z,58.35
2023-10-10T16:18:17.075Z,59.55
2023-10-10T16:28:57.933Z,61.25
2023-10-10T16:34:03.231Z,62.10
2023-10-10T16:39:07.598Z,62.26
2023-10-10T16:44:14.802Z,62.01
2023-10-10T16:49:20.918Z,62.20
2023-10-10T16:54:23.881Z,62.55
2023-10-10T16:59:28.075Z,62.22
2023-10-10T17:04:30.922Z,62.71
2023-10-10T17:09:36.645Z,62.50
2023-10-10T17:14:40.814Z,62.53
2023-10-10T17:19:43.683Z,63.45
2023-10-10T17:24:48.896Z,64.30
2023-10-10T17:29:53.170Z,64.34
2023-10-10T17:34:56.042Z,64.45
2023-10-10T17:39:59.101Z,64.10
2023-10-10T17:45:04.873Z,63.39
2023-10-10T17:50:11.428Z,62.86
2023-10-10T17:55:14.228Z,62.67
2023-10-10T18:00:22.032Z,61.34
2023-10-10T18:05:25.299Z,59.95
2023-10-10T18:10:28.163Z,59.29
2023-10-10T18:15:33.152Z,60.11
2023-10-10T18:20:40.740Z,60.39
2023-10-10T18:25:44.438Z,60.45
2023-10-10T18:30:48.636Z,61.24
2023-10-10T18:35:51.489Z,61.46
2023-10-10T18:40:56.105Z,61.71
2023-10-10T18:46:01.032Z,62.18
2023-10-10T18:51:04.862Z,62.38
2023-10-10T18:56:09.113Z,62.10
2023-10-10T19:01:13.880Z,62.20
2023-10-10T19:06:18.875Z,62.13
2023-10-10T19:11:24.523Z,61.41
2023-10-10T19:16:29.021Z,60.91
2023-10-10T19:21:31.968Z,60.32
2023-10-10T19:26:36.334Z,60.70
2023-10-10T19:31:41.103Z,60.99
2023-10-10T19:36:45.886Z,61.56
2023-10-10T19:41:48.835Z,61.70
2023-10-10T19:46:54.695Z,61.85
2023-10-10T19:51:58.147Z,62.01
2023-10-10T19:57:00.973Z,62.40
2023-10-10T20:02:07.790Z,62.89
2023-10-10T20:07:10.710Z,63.57
2023-10-10T20:12:15.947Z,63.82
2023-10-10T20:17:20.140Z,63.67
2023-10-10T20:22:22.961Z,63.64
2023-10-10T20:27:31.555Z,63.96
2023-10-10T20:32:36.053Z,64.02
2023-10-10T20:37:39.260Z,63.34
2023-10-10T20:42:43.806Z,63.19
2023-10-10T20:47:48.798Z,63.09
2023-10-10T20:52:52.321Z,62.98
2023-10-10T20:57:56.783Z,63.07
2023-10-10T21:03:07.183Z,63.37
2023-10-10T21:08:10.453Z,63.41
2023-10-10T21:13:14.195Z,63.64
2023-10-10T21:18:19.645Z,62.77
2023-10-10T21:23:22.640Z,62.62
2023-10-10T21:28:26.178Z,63.03
2023-10-10T21:33:30.699Z,63.63
2023-10-10T21:38:35.408Z,64.01
2023-10-10T21:43:38.322Z,63.99
2023-10-10T21:48:42.586Z,64.13
2023-10-10T21:53:45.641Z,64.34
2023-10-10T21:58:48.458Z,65.17
2023-10-10T22:03:53.048Z,65.46
2023-10-10T22:08:55.979Z,66.04
2023-10-10T22:13:59.267Z,66.46
2023-10-10T22:19:03.567Z,66.02
2023-10-10T22:24:07.002Z,65.75
2023-10-10T22:29:12.431Z,65.65
2023-10-10T22:34:16.570Z,65.96
2023-10-10T22:39:19.580Z,64.77
2023-10-10T22:44:22.563Z,64.85
2023-10-10T22:49:26.736Z,65.28
2023-10-10T22:54:29.537Z,64.71
2023-10-10T22:59:35.232Z,64.66
2023-10-10T23:04:41.119Z,64.54
2023-10-10T23:09:44.727Z,64.33
2023-10-10T23:14:47.757Z,64.58
2023-10-10T23:19:51.927Z,64.71
2023-10-10T23:24:54.781Z,64.58
2023-10-10T23:29:57.684Z,64.24
2023-10-10T23:35:03.974Z,64.21
2023-10-10T23:40:15.308Z,64.27
2023-10-10T23:45:23.509Z,62.97
2023-10-10T23:50:28.888Z,63.31
2023-10-10T23:55:31.703Z,63.06
